Terminal Aerodrome Forecast
Issued by NWS

Home | Current Version | Previous Version | Text Only | Print | Product List | Glossary On
Versions: 1 2 3 4 5 6 7 8 9 10 11 12
737
FTUS46 KPDT 260537
TAFPSC
TAF
KPSC 260537Z 2606/2706 23012KT P6SM -SHRA OVC050
     FM261900 25018G28KT P6SM BKN060=

USA.gov is the U.S. government's official web portal to all federal, state and local government web resources and services.